Time;durP1;ratioP1;P1;durP2;ratioP2;P2;SDS_P1;SDS_P2;PMS_P1;PMS_P2;Temp;Humidity;BMP_temperature;BMP_pressure;BME280_temperature;BME280_humidity;BME280_pressure;Samples;Min_cycle;Max_cycle;Signal;HPM_P1;HPM_P2
2021/10/29 00:00:10;;;;;;;2.80;2.60;;;8.60;99.90;;;;;;5055121;28;20729;-78
2021/10/29 00:02:38;;;;;;;2.72;2.53;;;8.60;99.90;;;;;;5057035;28;20227;-78
2021/10/29 00:05:05;;;;;;;2.88;2.67;;;8.60;99.90;;;;;;5056800;28;20249;-78
2021/10/29 00:07:32;;;;;;;2.53;2.33;;;8.60;99.90;;;;;;5060468;28;20743;-78
2021/10/29 00:10:00;;;;;;;2.97;2.78;;;8.50;99.90;;;;;;5053571;28;21232;-78
2021/10/29 00:12:27;;;;;;;2.83;2.63;;;8.50;99.90;;;;;;5059048;28;20222;-78
2021/10/29 00:14:56;;;;;;;2.85;2.65;;;8.50;99.90;;;;;;5059291;28;20272;-78
2021/10/29 00:17:23;;;;;;;3.20;2.58;;;8.50;99.90;;;;;;5046667;28;20657;-78
2021/10/29 00:19:50;;;;;;;3.08;2.40;;;8.50;99.90;;;;;;5046361;28;20222;-78
2021/10/29 00:22:17;;;;;;;2.97;2.78;;;8.40;99.90;;;;;;5042189;28;20223;-77
2021/10/29 00:24:45;;;;;;;3.58;2.67;;;8.40;99.90;;;;;;5045135;28;20229;-78
2021/10/29 00:27:13;;;;;;;2.55;2.40;;;8.40;99.90;;;;;;5040040;28;20272;-78
2021/10/29 00:29:40;;;;;;;2.80;2.60;;;8.40;99.90;;;;;;5039040;28;20621;-78
2021/10/29 00:32:09;;;;;;;2.90;2.70;;;8.40;99.90;;;;;;5045159;28;20218;-78
2021/10/29 00:34:36;;;;;;;2.58;2.38;;;8.40;99.90;;;;;;5047276;28;20661;-78
2021/10/29 00:37:03;;;;;;;2.72;2.50;;;8.30;99.90;;;;;;5042345;28;20266;-78
2021/10/29 00:39:31;;;;;;;2.58;2.38;;;8.30;99.90;;;;;;5038276;28;20315;-78
2021/10/29 00:41:58;;;;;;;2.70;2.50;;;8.30;99.90;;;;;;5042046;28;20223;-78
2021/10/29 00:44:27;;;;;;;2.40;2.30;;;8.30;99.90;;;;;;5042483;28;20215;-78
2021/10/29 00:46:54;;;;;;;2.88;2.58;;;8.30;99.90;;;;;;5038015;28;20219;-78
2021/10/29 00:49:23;;;;;;;2.80;2.50;;;8.30;99.90;;;;;;5044381;28;20222;-78
2021/10/29 00:51:51;;;;;;;2.22;2.10;;;8.30;99.90;;;;;;5039101;28;20598;-78
2021/10/29 00:54:21;;;;;;;2.50;2.30;;;8.30;99.90;;;;;;5046930;28;20578;-78
2021/10/29 00:56:49;;;;;;;3.80;2.65;;;8.30;99.90;;;;;;5045311;28;20226;-78
2021/10/29 00:59:18;;;;;;;2.53;2.42;;;8.20;99.90;;;;;;5046788;28;20230;-78
2021/10/29 01:01:45;;;;;;;2.92;2.72;;;8.20;99.90;;;;;;5043902;28;20223;-78
2021/10/29 01:04:12;;;;;;;2.40;2.30;;;8.20;99.90;;;;;;5037767;28;20218;-78
2021/10/29 01:06:42;;;;;;;2.63;2.42;;;8.20;99.90;;;;;;5043439;28;20234;-78
2021/10/29 01:09:09;;;;;;;2.45;2.35;;;8.10;99.90;;;;;;5053240;28;20226;-78
2021/10/29 01:11:36;;;;;;;2.80;2.60;;;8.10;99.90;;;;;;5068001;28;20217;-78
2021/10/29 01:14:03;;;;;;;2.30;2.10;;;8.10;99.90;;;;;;5063400;28;20222;-78
2021/10/29 01:16:30;;;;;;;2.50;2.30;;;8.00;99.90;;;;;;5061584;28;20233;-78
2021/10/29 01:18:58;;;;;;;3.03;2.53;;;8.10;99.90;;;;;;5058536;28;20222;-78
2021/10/29 01:21:26;;;;;;;2.60;2.40;;;8.00;99.90;;;;;;5062345;28;20738;-78
2021/10/29 01:23:53;;;;;;;2.88;2.58;;;8.10;99.90;;;;;;5060278;28;20726;-78
2021/10/29 01:26:21;;;;;;;2.63;2.42;;;8.10;99.90;;;;;;5060485;28;20794;-78
2021/10/29 01:28:48;;;;;;;2.38;2.20;;;8.10;99.90;;;;;;5059071;28;20226;-78
2021/10/29 01:31:17;;;;;;;2.75;2.55;;;8.10;99.90;;;;;;5064704;28;20221;-78
2021/10/29 01:33:45;;;;;;;2.85;2.42;;;8.00;99.90;;;;;;5058711;28;20219;-78
2021/10/29 01:36:12;;;;;;;2.80;2.60;;;8.00;99.90;;;;;;5065371;28;20226;-78
2021/10/29 01:38:43;;;;;;;3.10;2.90;;;7.90;99.90;;;;;;5054341;28;20549;-78
2021/10/29 01:41:11;;;;;;;2.70;2.50;;;7.90;99.90;;;;;;5066472;28;20226;-78
2021/10/29 01:43:40;;;;;;;2.67;2.47;;;7.90;99.90;;;;;;5058969;28;20280;-78
2021/10/29 01:46:07;;;;;;;2.60;2.40;;;7.90;99.90;;;;;;5066149;28;20222;-78
2021/10/29 01:48:34;;;;;;;2.90;2.63;;;7.90;99.90;;;;;;5064514;28;21070;-78
2021/10/29 01:51:02;;;;;;;2.80;2.60;;;7.80;99.90;;;;;;5061393;28;20574;-79
2021/10/29 01:53:29;;;;;;;2.40;2.30;;;7.80;99.90;;;;;;5065685;28;20234;-78
2021/10/29 01:55:58;;;;;;;2.58;2.38;;;7.80;99.90;;;;;;5063599;28;20213;-78
2021/10/29 01:58:25;;;;;;;2.50;2.30;;;7.70;99.90;;;;;;5066769;28;20295;-78
2021/10/29 02:00:52;;;;;;;2.58;2.38;;;7.70;99.90;;;;;;5038490;23;20219;-69
2021/10/29 02:03:19;;;;;;;2.70;2.50;;;7.80;99.90;;;;;;5002103;28;20220;-69
2021/10/29 02:05:46;;;;;;;2.70;2.50;;;7.80;99.90;;;;;;5003281;28;20703;-68
2021/10/29 02:08:14;;;;;;;2.80;2.60;;;7.80;99.90;;;;;;5001536;28;20593;-70
2021/10/29 02:10:41;;;;;;;2.50;2.30;;;7.80;99.90;;;;;;5004959;28;20223;-70
2021/10/29 02:13:09;;;;;;;2.60;2.40;;;7.80;99.90;;;;;;5004608;28;20348;-69
2021/10/29 02:15:36;;;;;;;2.75;2.55;;;7.80;99.90;;;;;;5004934;28;20224;-70
2021/10/29 02:18:03;;;;;;;2.50;2.40;;;7.80;99.90;;;;;;5005249;28;20226;-69
2021/10/29 02:20:30;;;;;;;2.55;2.45;;;7.70;99.90;;;;;;5000393;28;20598;-69
2021/10/29 02:22:58;;;;;;;2.85;2.65;;;7.70;99.90;;;;;;5003851;28;20706;-70
2021/10/29 02:25:25;;;;;;;2.97;2.72;;;7.60;99.90;;;;;;5003577;28;20231;-71
2021/10/29 02:27:52;;;;;;;2.85;2.65;;;7.60;99.90;;;;;;5005302;28;20227;-69
2021/10/29 02:30:21;;;;;;;2.78;2.47;;;7.60;99.90;;;;;;4988347;28;20225;-68
2021/10/29 02:32:48;;;;;;;2.47;2.38;;;7.60;99.90;;;;;;4984819;28;20232;-68
2021/10/29 02:35:15;;;;;;;2.67;2.47;;;7.50;99.90;;;;;;4983660;28;20727;-71
2021/10/29 02:37:42;;;;;;;2.65;2.45;;;7.50;99.90;;;;;;4987225;28;20227;-68
2021/10/29 02:40:10;;;;;;;2.53;2.33;;;7.50;99.90;;;;;;4984023;28;20232;-69
2021/10/29 02:42:38;;;;;;;2.90;2.47;;;7.50;99.90;;;;;;4983879;28;20228;-70
2021/10/29 02:45:05;;;;;;;2.20;2.10;;;7.50;99.90;;;;;;4983196;28;20225;-69
2021/10/29 02:47:34;;;;;;;2.65;2.45;;;7.50;99.90;;;;;;4986524;28;20220;-68
2021/10/29 02:50:01;;;;;;;2.97;2.78;;;7.50;99.90;;;;;;4982236;28;20570;-69
2021/10/29 02:52:28;;;;;;;2.60;2.40;;;7.40;99.90;;;;;;4988028;28;20216;-69
2021/10/29 02:54:55;;;;;;;2.63;2.42;;;7.40;99.90;;;;;;4985412;28;20715;-69
2021/10/29 02:57:22;;;;;;;2.92;2.72;;;7.40;99.90;;;;;;4985354;28;20601;-69
2021/10/29 02:59:49;;;;;;;2.47;2.28;;;7.30;99.90;;;;;;4984886;28;20236;-68
2021/10/29 03:02:16;;;;;;;3.45;2.90;;;7.30;99.90;;;;;;4983371;28;20235;-69
2021/10/29 03:04:45;;;;;;;2.97;2.70;;;7.30;99.90;;;;;;4986774;28;20228;-68
2021/10/29 03:07:12;;;;;;;3.10;2.80;;;7.30;99.90;;;;;;4985210;28;20233;-69
2021/10/29 03:09:39;;;;;;;2.75;2.50;;;7.30;99.90;;;;;;4983239;28;20739;-68
2021/10/29 03:12:06;;;;;;;2.47;2.38;;;7.20;99.90;;;;;;4983581;28;20738;-69
2021/10/29 03:14:34;;;;;;;2.70;2.50;;;7.20;99.90;;;;;;4983723;28;20224;-69
2021/10/29 03:17:01;;;;;;;2.88;2.67;;;7.20;99.90;;;;;;4981900;28;20243;-70
2021/10/29 03:19:28;;;;;;;2.60;2.40;;;7.20;99.90;;;;;;4982747;28;20232;-68
2021/10/29 03:21:56;;;;;;;2.58;2.35;;;7.20;99.90;;;;;;4982784;28;20787;-68
2021/10/29 03:24:23;;;;;;;2.40;2.30;;;7.20;99.90;;;;;;4983804;28;20228;-69
2021/10/29 03:26:50;;;;;;;2.67;2.47;;;7.20;99.90;;;;;;4983023;28;20735;-70
2021/10/29 03:29:17;;;;;;;2.40;2.30;;;7.10;99.90;;;;;;4981334;28;20229;-67
2021/10/29 03:31:44;;;;;;;2.80;2.60;;;6.90;99.90;;;;;;4984545;28;20224;-70
2021/10/29 03:34:11;;;;;;;2.85;2.53;;;6.90;99.90;;;;;;4982873;28;20228;-70
2021/10/29 03:36:39;;;;;;;2.70;2.50;;;6.90;99.90;;;;;;4983142;28;20228;-70
2021/10/29 03:39:10;;;;;;;2.40;2.30;;;6.90;99.90;;;;;;4985458;28;20223;-69
2021/10/29 03:41:42;;;;;;;2.65;2.45;;;6.90;99.90;;;;;;4994661;28;21081;-70
2021/10/29 03:44:18;;;;;;;2.65;2.45;;;6.90;99.90;;;;;;5002028;28;20227;-69
2021/10/29 03:46:46;;;;;;;3.00;2.78;;;6.90;99.90;;;;;;4997328;28;20227;-68
2021/10/29 03:49:18;;;;;;;3.70;2.95;;;6.90;99.90;;;;;;5001570;28;20587;-69
2021/10/29 03:51:49;;;;;;;2.70;2.50;;;6.90;99.90;;;;;;5002921;28;20248;-71
2021/10/29 03:54:21;;;;;;;2.78;2.58;;;7.00;99.90;;;;;;5006189;28;20738;-70
2021/10/29 03:56:56;;;;;;;2.85;2.65;;;7.00;99.90;;;;;;5002621;28;20226;-71
2021/10/29 03:59:23;;;;;;;2.85;2.65;;;6.90;99.90;;;;;;5004291;28;20226;-69
2021/10/29 04:01:50;;;;;;;2.70;2.50;;;6.90;99.90;;;;;;5004971;28;20710;-70
2021/10/29 04:04:18;;;;;;;3.03;2.83;;;6.90;99.90;;;;;;5005492;28;20302;-69
2021/10/29 04:06:45;;;;;;;3.13;2.92;;;7.00;99.90;;;;;;5005290;28;20734;-69
2021/10/29 04:09:12;;;;;;;3.10;2.80;;;6.90;99.90;;;;;;5004470;28;20227;-71
2021/10/29 04:11:41;;;;;;;3.22;3.03;;;6.90;99.90;;;;;;5006006;28;20220;-69
2021/10/29 04:14:10;;;;;;;3.20;2.45;;;6.80;99.90;;;;;;5005332;28;20218;-71
2021/10/29 04:16:38;;;;;;;2.90;2.40;;;6.80;99.90;;;;;;5005254;28;20239;-69
2021/10/29 04:19:07;;;;;;;3.60;3.25;;;6.80;99.90;;;;;;5005107;28;20216;-69
2021/10/29 04:21:35;;;;;;;2.90;2.70;;;6.80;99.90;;;;;;5003574;28;20305;-69
2021/10/29 04:24:02;;;;;;;3.65;2.75;;;6.80;99.90;;;;;;5005399;28;20699;-69
2021/10/29 04:26:30;;;;;;;4.47;3.08;;;6.80;99.90;;;;;;5004347;28;20713;-70
2021/10/29 04:29:01;;;;;;;3.70;3.40;;;6.80;99.90;;;;;;5007907;28;20220;-70
2021/10/29 04:31:30;;;;;;;3.13;2.92;;;6.80;99.90;;;;;;5004848;28;20227;-69
2021/10/29 04:33:58;;;;;;;3.10;2.90;;;6.70;99.90;;;;;;4993991;28;20696;-70
2021/10/29 04:36:25;;;;;;;3.75;3.10;;;6.70;99.90;;;;;;4986083;28;20216;-70
2021/10/29 04:38:52;;;;;;;3.47;3.28;;;6.60;99.90;;;;;;4985570;28;20224;-69
2021/10/29 04:41:19;;;;;;;4.07;3.50;;;6.60;99.90;;;;;;4985457;28;20231;-68
2021/10/29 04:43:46;;;;;;;2.97;2.72;;;6.70;99.90;;;;;;4984833;28;20223;-69
2021/10/29 04:46:15;;;;;;;2.72;2.53;;;6.70;99.90;;;;;;4985615;28;20236;-69
2021/10/29 04:48:42;;;;;;;5.05;2.80;;;6.70;99.90;;;;;;4984979;28;20580;-69
2021/10/29 04:51:09;;;;;;;2.85;2.65;;;6.70;99.90;;;;;;4987851;28;20225;-69
2021/10/29 04:53:36;;;;;;;2.70;2.58;;;6.70;99.90;;;;;;4987640;28;20228;-69
2021/10/29 04:56:04;;;;;;;2.53;2.33;;;6.70;99.90;;;;;;4980230;28;20228;-69
2021/10/29 04:58:31;;;;;;;2.70;2.58;;;6.70;99.90;;;;;;4982387;28;20237;-68
2021/10/29 05:00:58;;;;;;;2.58;2.38;;;6.70;99.90;;;;;;4982851;28;20291;-70
2021/10/29 05:03:26;;;;;;;2.85;2.70;;;6.70;99.90;;;;;;4981382;28;20221;-69
2021/10/29 05:05:54;;;;;;;2.97;2.78;;;6.60;99.90;;;;;;4984883;28;20651;-70
2021/10/29 05:08:21;;;;;;;3.05;2.75;;;6.60;99.90;;;;;;4984222;28;20256;-69
2021/10/29 05:10:48;;;;;;;3.72;3.17;;;6.60;99.90;;;;;;4982325;28;20217;-70
2021/10/29 05:13:15;;;;;;;2.10;2.00;;;6.50;99.90;;;;;;4984348;28;20227;-69
2021/10/29 05:15:42;;;;;;;2.88;2.67;;;6.50;99.90;;;;;;4984436;28;20240;-70
2021/10/29 05:18:15;;;;;;;2.42;2.22;;;6.50;99.90;;;;;;4984748;28;20228;-69
2021/10/29 05:20:43;;;;;;;2.63;2.53;;;6.40;99.90;;;;;;4983285;28;20229;-69
2021/10/29 05:23:10;;;;;;;2.38;2.28;;;6.40;99.90;;;;;;4984077;28;20283;-68
2021/10/29 05:25:38;;;;;;;2.85;2.65;;;6.40;99.90;;;;;;4981443;28;20224;-69
2021/10/29 05:28:05;;;;;;;2.58;2.47;;;6.40;99.90;;;;;;4982742;28;20232;-69
2021/10/29 05:30:33;;;;;;;2.80;2.60;;;6.40;99.90;;;;;;4985918;28;20255;-68
2021/10/29 05:33:00;;;;;;;2.33;2.20;;;6.40;99.90;;;;;;4982427;28;20315;-68
2021/10/29 05:35:28;;;;;;;2.30;2.20;;;6.40;99.90;;;;;;4983897;28;20231;-69
2021/10/29 05:37:57;;;;;;;2.63;2.50;;;6.40;99.90;;;;;;4986785;28;20219;-68
2021/10/29 05:40:25;;;;;;;2.50;2.40;;;6.40;99.90;;;;;;4985743;28;20224;-69
2021/10/29 05:42:52;;;;;;;2.50;2.40;;;6.40;99.90;;;;;;4986336;28;20815;-69
2021/10/29 05:45:19;;;;;;;3.50;3.20;;;6.40;99.90;;;;;;4980614;28;20233;-69
2021/10/29 05:47:46;;;;;;;4.10;3.80;;;6.40;99.90;;;;;;4983645;28;20610;-69
2021/10/29 05:50:14;;;;;;;5.00;4.50;;;6.40;99.90;;;;;;4984886;28;20225;-69
2021/10/29 05:52:43;;;;;;;4.10;3.80;;;6.40;99.90;;;;;;4987497;28;20228;-69
2021/10/29 05:55:17;;;;;;;3.65;3.35;;;6.50;99.90;;;;;;4983004;28;20275;-71
2021/10/29 05:57:47;;;;;;;3.88;3.08;;;6.60;99.90;;;;;;4984066;28;20221;-69
2021/10/29 06:00:16;;;;;;;4.03;3.72;;;6.60;99.90;;;;;;4981831;28;20430;-69
2021/10/29 06:02:43;;;;;;;4.05;3.65;;;6.60;99.90;;;;;;4982226;28;20495;-69
2021/10/29 06:05:11;;;;;;;3.67;3.40;;;6.60;99.90;;;;;;4985816;28;20231;-69
2021/10/29 06:07:38;;;;;;;3.40;3.20;;;6.50;99.90;;;;;;4984456;28;20229;-69
2021/10/29 06:10:07;;;;;;;3.13;2.92;;;6.50;99.90;;;;;;4975068;28;20233;-69
2021/10/29 06:12:37;;;;;;;4.13;3.72;;;6.50;99.90;;;;;;4985125;28;20229;-69
2021/10/29 06:15:05;;;;;;;2.95;2.75;;;6.50;99.90;;;;;;4984094;28;20256;-69
2021/10/29 06:17:33;;;;;;;2.70;2.53;;;6.50;99.90;;;;;;4985421;28;20220;-69
2021/10/29 06:20:00;;;;;;;3.15;2.95;;;6.50;99.90;;;;;;4985372;28;20225;-70
2021/10/29 06:22:30;;;;;;;3.17;2.97;;;6.60;99.90;;;;;;4983041;28;20221;-69
2021/10/29 06:25:05;;;;;;;3.15;2.95;;;6.60;99.90;;;;;;4980750;28;20245;-68
2021/10/29 06:30:17;;;;;;;3.20;2.90;;;6.70;99.90;;;;;;4982413;28;20227;-68
2021/10/29 06:32:44;;;;;;;3.13;2.92;;;6.80;99.90;;;;;;4985627;28;20255;-68
2021/10/29 06:35:13;;;;;;;3.80;3.50;;;6.80;99.90;;;;;;4983843;28;20715;-68
2021/10/29 06:37:42;;;;;;;3.13;2.92;;;6.80;99.90;;;;;;4980823;28;20217;-69
2021/10/29 06:40:14;;;;;;;5.95;2.58;;;6.80;99.90;;;;;;4984838;28;20220;-69
2021/10/29 06:42:46;;;;;;;2.88;2.65;;;6.90;99.90;;;;;;4977326;28;20217;-69
2021/10/29 06:45:23;;;;;;;3.05;2.85;;;6.90;99.90;;;;;;4980054;28;20220;-69
2021/10/29 06:48:03;;;;;;;3.17;2.97;;;7.00;99.90;;;;;;4984429;28;20274;-69
2021/10/29 07:01:26;;;;;;;2.85;2.65;;;7.10;99.90;;;;;;4981666;28;20231;-70
2021/10/29 07:39:59;;;;;;;3.88;3.30;;;13.50;99.90;;;;;;5003090;28;20258;-69
2021/10/29 07:42:29;;;;;;;3.67;3.38;;;13.60;99.90;;;;;;4989008;28;20228;-70
2021/10/29 07:44:56;;;;;;;3.53;3.17;;;13.50;99.90;;;;;;4989881;28;20232;-72
2021/10/29 07:47:23;;;;;;;3.78;3.33;;;13.60;99.90;;;;;;4987066;28;20229;-68
2021/10/29 07:49:50;;;;;;;3.22;3.03;;;13.70;99.90;;;;;;4986525;28;20236;-70
2021/10/29 07:52:20;;;;;;;3.58;3.10;;;13.50;99.90;;;;;;4987154;28;20599;-70
2021/10/29 07:54:47;;;;;;;3.65;3.22;;;13.60;99.90;;;;;;4986920;28;20733;-69
2021/10/29 07:57:17;;;;;;;4.13;3.60;;;13.90;99.90;;;;;;4987752;28;20796;-70
2021/10/29 07:59:45;;;;;;;3.78;3.35;;;14.10;99.90;;;;;;4989684;28;20227;-69
2021/10/29 08:02:12;;;;;;;4.97;3.38;;;14.50;99.90;;;;;;4981487;23;22332;-90
2021/10/29 08:04:40;;;;;;;3.33;3.03;;;14.80;99.90;;;;;;5027408;28;20219;-88
2021/10/29 08:07:07;;;;;;;4.15;3.75;;;15.00;99.90;;;;;;5016246;28;20239;-90
2021/10/29 08:09:38;;;;;;;4.10;3.70;;;15.10;99.90;;;;;;5014266;28;20228;-85
2021/10/29 08:12:09;;;;;;;4.20;3.55;;;15.30;99.90;;;;;;4996595;28;20270;-88
2021/10/29 08:14:39;;;;;;;3.40;3.10;;;15.50;99.90;;;;;;5027221;28;20219;-87
2021/10/29 08:17:09;;;;;;;3.95;3.55;;;15.30;99.90;;;;;;4982802;28;20236;-88
2021/10/29 08:19:37;;;;;;;3.78;3.47;;;15.20;99.90;;;;;;4940826;28;20220;-85
2021/10/29 08:22:05;;;;;;;3.80;3.47;;;15.30;99.90;;;;;;5006663;28;20234;-86
2021/10/29 08:24:33;;;;;;;3.40;3.10;;;15.50;99.90;;;;;;5004739;28;20736;-84
2021/10/29 08:27:02;;;;;;;4.13;3.45;;;15.40;99.90;;;;;;5026006;28;20222;-87
2021/10/29 08:29:29;;;;;;;4.70;2.97;;;15.30;99.90;;;;;;5003629;28;20232;-88
2021/10/29 08:31:57;;;;;;;4.05;3.65;;;15.20;99.90;;;;;;4982909;28;20231;-85
2021/10/29 08:34:26;;;;;;;5.80;3.10;;;15.00;99.90;;;;;;5000183;28;20714;-86
2021/10/29 08:36:53;;;;;;;4.20;3.35;;;15.00;99.90;;;;;;5010466;28;20286;-88
2021/10/29 08:39:21;;;;;;;5.18;4.13;;;15.10;99.90;;;;;;5012990;28;20232;-88
2021/10/29 08:41:51;;;;;;;4.88;4.35;;;15.10;99.90;;;;;;4943600;28;20239;-87
2021/10/29 08:44:21;;;;;;;6.90;3.70;;;15.20;99.90;;;;;;4886670;28;20244;-86
2021/10/29 08:46:54;;;;;;;4.18;3.78;;;15.20;99.90;;;;;;4934475;28;20236;-88
2021/10/29 08:49:28;;;;;;;4.30;3.70;;;15.40;99.90;;;;;;4911484;28;20290;-87
2021/10/29 08:52:00;;;;;;;5.88;4.32;;;15.80;99.90;;;;;;4910566;28;20242;-88
2021/10/29 08:54:38;;;;;;;4.45;3.63;;;16.00;99.90;;;;;;4959712;28;20278;-87
2021/10/29 09:01:09;;;;;;;5.00;3.88;;;16.60;99.90;;;;;;4971041;28;20247;-85
2021/10/29 09:03:47;;;;;;;4.13;3.70;;;16.50;99.90;;;;;;5002614;28;20248;-84
2021/10/29 09:32:00;;;;;;;4.82;3.85;;;17.10;99.90;;;;;;4970178;28;20657;-79
2021/10/29 09:34:28;;;;;;;3.85;3.40;;;17.20;99.90;;;;;;4980858;28;20227;-78
2021/10/29 09:36:56;;;;;;;6.13;3.92;;;17.30;99.90;;;;;;5007815;28;20229;-78
2021/10/29 09:39:24;;;;;;;3.53;3.22;;;17.50;99.90;;;;;;5013368;28;20575;-79
2021/10/29 09:42:05;;;;;;;4.10;3.72;;;17.70;99.90;;;;;;5012522;28;20238;-78
2021/10/29 09:44:43;;;;;;;4.90;3.55;;;17.90;99.90;;;;;;5006702;28;20223;-79
2021/10/29 09:47:11;;;;;;;6.13;3.70;;;17.80;99.90;;;;;;5007594;28;20224;-78
2021/10/29 09:49:50;;;;;;;3.85;3.25;;;17.60;99.90;;;;;;5011378;28;20658;-78
2021/10/29 09:52:45;;;;;;;3.92;3.38;;;17.30;99.90;;;;;;5025972;28;20234;-79
2021/10/29 09:55:22;;;;;;;3.90;3.00;;;17.20;99.90;;;;;;5030523;28;20280;-79
2021/10/29 09:57:50;;;;;;;4.78;3.42;;;17.00;99.90;;;;;;5040098;28;20332;-79
2021/10/29 10:00:17;;;;;;;3.70;3.40;;;17.10;99.90;;;;;;5023967;28;20228;-79
2021/10/29 10:02:46;;;;;;;5.57;3.22;;;17.10;99.90;;;;;;5038531;28;20578;-79
2021/10/29 10:05:16;;;;;;;4.03;2.90;;;17.30;99.90;;;;;;5030197;28;20227;-79
2021/10/29 10:07:46;;;;;;;4.85;2.92;;;17.50;99.90;;;;;;5030325;28;20223;-79
2021/10/29 10:10:14;;;;;;;4.57;3.25;;;17.80;99.90;;;;;;5043783;28;20218;-80
2021/10/29 10:12:44;;;;;;;5.70;3.03;;;17.90;99.90;;;;;;5033346;28;20229;-80
2021/10/29 10:15:12;;;;;;;3.08;2.65;;;18.00;99.90;;;;;;5025697;28;20231;-79
2021/10/29 10:17:39;;;;;;;3.55;3.25;;;18.10;99.90;;;;;;5035385;28;20215;-79
2021/10/29 10:20:09;;;;;;;3.83;3.45;;;18.00;99.90;;;;;;5017819;28;20270;-79
2021/10/29 10:22:40;;;;;;;3.45;3.13;;;17.90;99.90;;;;;;5014168;28;20230;-79
2021/10/29 10:45:34;;;;;;;4.93;3.28;;;18.30;99.90;;;;;;4841042;29;20229;-80
2021/10/29 10:48:23;;;;;;;4.18;2.85;;;18.20;99.90;;;;;;4941785;28;20220;-78
2021/10/29 10:50:53;;;;;;;3.72;3.42;;;18.20;99.90;;;;;;4971661;28;20280;-79
2021/10/29 10:53:27;;;;;;;3.50;3.17;;;18.30;99.90;;;;;;4973872;28;20229;-77
2021/10/29 10:56:10;;;;;;;4.18;3.10;;;18.40;99.90;;;;;;4975778;28;20216;-80
2021/10/29 10:58:51;;;;;;;4.22;3.45;;;18.40;99.90;;;;;;4978531;28;20235;-79
2021/10/29 11:01:42;;;;;;;3.22;2.92;;;18.40;99.90;;;;;;4998801;28;20769;-79
2021/10/29 11:04:38;;;;;;;3.28;2.97;;;18.50;99.90;;;;;;4993390;28;20248;-78
2021/10/29 11:07:14;;;;;;;3.97;2.97;;;18.50;99.90;;;;;;5016344;28;20284;-77
2021/10/29 11:13:05;;;;;;;3.80;3.22;;;18.10;99.90;;;;;;4996434;28;20215;-77
2021/10/29 11:15:32;;;;;;;3.20;2.90;;;18.00;99.90;;;;;;5015375;28;20216;-77
2021/10/29 11:18:02;;;;;;;3.72;3.42;;;18.10;99.90;;;;;;5007713;28;20235;-77
2021/10/29 11:20:47;;;;;;;8.35;3.35;;;18.10;99.90;;;;;;5014266;28;20251;-77
2021/10/29 11:23:21;;;;;;;4.68;3.50;;;18.10;99.90;;;;;;5010838;28;20589;-76
2021/10/29 11:25:56;;;;;;;6.68;4.13;;;18.00;99.90;;;;;;5021355;28;20306;-77
2021/10/29 11:28:26;;;;;;;5.85;3.38;;;18.20;99.90;;;;;;4994431;28;20242;-76
2021/10/29 11:30:55;;;;;;;4.65;3.22;;;18.30;99.90;;;;;;5002400;28;20611;-76
2021/10/29 11:33:22;;;;;;;4.82;3.28;;;18.20;99.90;;;;;;5007816;28;20236;-77
2021/10/29 11:36:00;;;;;;;3.33;2.72;;;18.20;99.90;;;;;;4999513;28;20720;-76
2021/10/29 11:38:28;;;;;;;4.90;3.22;;;17.80;99.90;;;;;;4993845;28;20216;-76
2021/10/29 11:40:56;;;;;;;3.58;2.90;;;17.70;99.90;;;;;;5001040;28;20227;-77
2021/10/29 11:43:25;;;;;;;4.60;3.03;;;17.90;99.90;;;;;;5012828;28;20227;-76
2021/10/29 11:45:53;;;;;;;4.45;2.90;;;18.30;99.90;;;;;;5007003;28;20232;-76
2021/10/29 11:48:21;;;;;;;4.32;3.30;;;18.70;99.90;;;;;;4992890;28;20239;-77
2021/10/29 11:50:48;;;;;;;4.40;3.05;;;18.60;99.90;;;;;;4998163;28;20640;-76
2021/10/29 11:53:17;;;;;;;3.30;2.83;;;18.60;99.90;;;;;;4992952;28;20212;-76
2021/10/29 11:55:48;;;;;;;3.25;2.95;;;18.80;99.90;;;;;;5007418;28;20227;-76
2021/10/29 11:58:21;;;;;;;6.18;3.10;;;18.80;99.90;;;;;;4999123;28;20703;-76
2021/10/29 12:01:09;;;;;;;3.67;2.80;;;18.60;99.90;;;;;;5001949;28;20221;-77
2021/10/29 12:09:28;;;;;;;4.20;3.00;;;18.40;99.90;;;;;;4941196;28;21158;-76
2021/10/29 12:11:57;;;;;;;4.50;3.40;;;18.60;99.90;;;;;;5015634;28;20216;-76
2021/10/29 12:14:30;;;;;;;5.20;3.30;;;18.40;99.90;;;;;;5001115;28;20228;-76
2021/10/29 12:17:04;;;;;;;3.67;3.15;;;17.80;99.90;;;;;;5003267;28;20224;-76
2021/10/29 12:19:32;;;;;;;7.13;3.30;;;17.50;99.90;;;;;;5007241;28;20278;-78
2021/10/29 12:22:08;;;;;;;3.53;3.22;;;17.20;99.90;;;;;;5020428;28;20228;-76
2021/10/29 12:24:43;;;;;;;2.72;2.53;;;17.00;99.90;;;;;;5002361;28;20661;-76
2021/10/29 12:30:14;;;;;;;3.80;3.00;;;16.90;99.90;;;;;;4992393;28;20225;-78
2021/10/29 12:38:33;;;;;;;3.85;2.95;;;16.70;99.90;;;;;;5012523;28;20374;-76
2021/10/29 12:53:04;;;;;;;2.92;2.40;;;17.10;99.90;;;;;;4994332;28;20227;-77
2021/10/29 13:01:32;;;;;;;4.47;2.47;;;17.10;99.90;;;;;;5008811;28;20243;-76
2021/10/29 13:04:54;;;;;;;2.90;2.47;;;17.10;99.90;;;;;;4993922;28;20225;-77
2021/10/29 13:07:25;;;;;;;2.70;2.17;;;17.20;99.90;;;;;;4998968;28;20228;-76
2021/10/29 13:10:04;;;;;;;3.78;2.60;;;17.50;99.90;;;;;;5000680;28;20604;-76
2021/10/29 13:12:40;;;;;;;2.67;2.47;;;17.50;99.90;;;;;;5006988;28;20242;-76
2021/10/29 13:18:39;;;;;;;3.25;2.25;;;17.40;99.90;;;;;;4997863;28;20228;-78
2021/10/29 13:27:29;;;;;;;5.88;2.58;;;16.60;99.90;;;;;;4940346;28;20772;-77
2021/10/29 13:35:44;;;;;;;4.38;3.25;;;16.20;99.90;;;;;;4945150;28;20222;-77
2021/10/29 13:52:20;;;;;;;2.63;2.42;;;15.90;99.90;;;;;;4989705;28;20282;-76
2021/10/29 13:54:55;;;;;;;3.00;2.70;;;16.10;99.90;;;;;;4981389;28;20231;-76
2021/10/29 14:28:21;;;;;;;2.40;2.20;;;16.70;99.90;;;;;;4990473;28;20302;-74
2021/10/29 14:30:55;;;;;;;2.33;2.20;;;16.50;99.90;;;;;;4990901;28;20228;-73
2021/10/29 14:33:25;;;;;;;5.75;2.95;;;16.30;99.90;;;;;;4977647;28;20895;-72
2021/10/29 14:35:55;;;;;;;2.92;2.40;;;16.10;99.90;;;;;;4993321;28;20238;-72
2021/10/29 14:38:31;;;;;;;4.40;2.78;;;16.00;99.90;;;;;;4990743;28;20224;-73
2021/10/29 14:41:03;;;;;;;3.00;2.70;;;16.00;99.90;;;;;;4990891;28;20219;-74
2021/10/29 14:43:34;;;;;;;3.05;2.30;;;15.90;99.90;;;;;;4995991;28;20286;-73
2021/10/29 14:46:09;;;;;;;3.17;2.35;;;15.80;99.90;;;;;;4991215;28;20603;-73
2021/10/29 14:48:44;;;;;;;4.65;2.65;;;15.80;99.90;;;;;;4993118;28;20207;-74
2021/10/29 15:27:09;;;;;;;2.53;2.33;;;14.50;99.90;;;;;;4973847;28;20224;-77
2021/10/29 15:29:47;;;;;;;3.55;2.67;;;14.40;99.90;;;;;;4978202;28;20235;-76
2021/10/29 15:43:35;;;;;;;2.22;2.03;;;14.00;99.90;;;;;;4988807;28;20711;-76
2021/10/29 15:46:10;;;;;;;3.00;2.47;;;13.90;99.90;;;;;;4990801;28;21952;-76
2021/10/29 15:48:45;;;;;;;3.17;2.30;;;13.80;99.90;;;;;;4993486;28;20222;-77
2021/10/29 15:51:12;;;;;;;4.03;2.08;;;13.70;99.90;;;;;;4992619;28;20232;-78
2021/10/29 15:53:41;;;;;;;2.80;2.60;;;13.70;99.90;;;;;;4993329;28;20698;-78
2021/10/29 15:56:15;;;;;;;2.55;2.25;;;13.60;99.90;;;;;;4994690;28;20799;-75
2021/10/29 15:58:49;;;;;;;2.60;2.38;;;13.50;99.90;;;;;;4996562;28;20681;-77
2021/10/29 16:01:22;;;;;;;3.20;2.90;;;13.40;99.90;;;;;;4995352;28;20212;-78
2021/10/29 16:04:05;;;;;;;4.20;3.58;;;13.30;99.90;;;;;;4998452;28;20231;-79
2021/10/29 16:17:33;;;;;;;3.42;3.13;;;13.00;99.90;;;;;;4993843;28;20773;-74
2021/10/29 16:20:00;;;;;;;4.75;3.28;;;13.00;99.90;;;;;;4993559;28;20229;-75
2021/10/29 16:22:32;;;;;;;4.18;2.70;;;12.90;99.90;;;;;;4992617;28;20711;-75
2021/10/29 16:25:03;;;;;;;3.17;2.63;;;12.90;99.90;;;;;;4989417;28;20244;-75
2021/10/29 16:27:39;;;;;;;2.88;2.40;;;12.80;99.90;;;;;;4990553;28;20232;-77
2021/10/29 16:30:07;;;;;;;3.38;3.08;;;12.70;99.90;;;;;;4993149;28;20714;-76
2021/10/29 16:35:38;;;;;;;3.13;2.83;;;12.50;99.90;;;;;;4952926;28;20732;-75
2021/10/29 16:38:07;;;;;;;3.55;3.00;;;12.50;99.90;;;;;;4952070;28;20704;-74
2021/10/29 16:40:34;;;;;;;3.53;3.22;;;12.50;99.90;;;;;;4978206;28;20220;-78
2021/10/29 16:43:02;;;;;;;3.92;2.92;;;12.40;99.90;;;;;;5004428;28;20232;-77
2021/10/29 16:45:29;;;;;;;3.38;2.95;;;12.40;99.90;;;;;;5000996;28;20233;-77
2021/10/29 16:47:58;;;;;;;4.07;3.70;;;12.40;99.90;;;;;;4999261;28;20223;-76
2021/10/29 16:50:25;;;;;;;3.20;3.00;;;12.30;99.90;;;;;;4971974;28;20231;-75
2021/10/29 16:52:52;;;;;;;3.55;3.25;;;12.30;99.90;;;;;;5001611;28;20217;-75
2021/10/29 16:55:20;;;;;;;4.88;3.33;;;12.20;99.90;;;;;;4998705;28;20235;-77
2021/10/29 16:57:48;;;;;;;4.05;3.28;;;12.10;99.90;;;;;;4958573;28;20224;-76
2021/10/29 17:00:16;;;;;;;3.58;3.28;;;12.10;99.90;;;;;;4981837;28;20599;-78
2021/10/29 17:02:43;;;;;;;3.63;3.33;;;12.10;99.90;;;;;;4991334;28;20235;-81
2021/10/29 17:05:12;;;;;;;3.75;3.45;;;12.10;99.90;;;;;;4954627;28;20237;-76
2021/10/29 17:07:40;;;;;;;3.55;3.25;;;12.00;99.90;;;;;;4964108;28;20680;-78
2021/10/29 17:10:10;;;;;;;3.30;3.00;;;12.00;99.90;;;;;;5003462;28;20228;-79
2021/10/29 17:12:40;;;;;;;3.50;3.20;;;11.90;99.90;;;;;;5009262;28;20228;-78
2021/10/29 17:15:09;;;;;;;4.05;3.70;;;11.80;99.90;;;;;;4999992;28;20629;-78
2021/10/29 17:17:36;;;;;;;5.18;4.18;;;11.90;99.90;;;;;;4998776;28;20230;-79
2021/10/29 17:20:05;;;;;;;4.43;3.90;;;11.80;99.90;;;;;;4999668;28;20220;-75
2021/10/29 17:22:33;;;;;;;4.85;4.00;;;11.80;99.90;;;;;;4998108;28;20607;-77